Franksville, WI

3:12 AM CDT on August 27, 2016 (GMT -0500)
K and U | | Change Station

Elev 720 ft 42.79 °N, 88.02 °W | Updated 13 minutes ago

Overcast
Overcast
65.3 °F
Feels Like 65.3 °F
N
2.2
Wind Variable Wind from ENE

Today
High -- | Low -- °F
--% Chance of Precip.
Yesterday
High -- | Low -- °F
Precip. -- in
Pressure 30.11 in
Visibility 10.0 miles
Clouds Mostly Cloudy 4100 ft
Overcast 6000 ft
Dew Point 61 °F
Humidity 86%
Rainfall 0.00 in
Snow Depth Not available.
6:11 AM 7:33 PM
Waning Crescent, 26% visible
METAR KRAC 270753Z AUTO 10008KT 10SM BKN041 OVC060 21/16 A3012 RMK AO2 SLP195 T02060161
Pressure 30.11 in
Visibility 10.0 miles
Clouds Mostly Cloudy 4100 ft
Overcast 6000 ft
Dew Point 61 °F
Humidity 86%
Rainfall 0.00 in
Snow Depth Not available.
6:11 AM 7:33 PM
Waning Crescent, 26% visible
METAR KRAC 270753Z AUTO 10008KT 10SM BKN041 OVC060 21/16 A3012 RMK AO2 SLP195 T02060161

10-Day Weather Forecast

Almanac

Astronomy

Aug. 27, 2016 Rise Set
Actual Time
Civil Twilight
Nautical Twilight
Astronomical Twilight
Moon
Length of Visible Light
Length of Day
Tomorrow will be .
, % of the Moon is Illuminated

Today's Extremes

State Highs State Lows

Community

WunderPhotos

Upload Photos

1,935,303 photos uploaded!

WunderBlog® & News

Nearby

Air Quality

  Air Quality AQ Index Pollutant
Not available.

Snow Depth

Station Depth Elevation

Earthquake Activity

City Distance Mag. Time & Date
Minimum magnitude displayed is 2.5.

Coastal Water Temperatures

Place Temperature

Stations

Nearby Weather Stations

Station Location Temp. Windchill Dew Point Humidity Wind Precip. Elev Updated Type
                   

Watches & Warnings

There are currently no watches in effect.